sensor_id;sensor_type;location;lat;lon;timestamp;pressure;altitude;pressure_sealevel;temperature;humidity
28354;BME280;15603;50.878;8.036;2023-05-23T00:11:07;146517.00;;;13.75;100.00
28354;BME280;15603;50.878;8.036;2023-05-23T00:41:07;146395.16;;;13.24;100.00
28354;BME280;15603;50.878;8.036;2023-05-23T01:06:34;146317.25;;;12.91;100.00
28354;BME280;15603;50.878;8.036;2023-05-23T01:22:48;146755.88;;;14.76;100.00
28354;BME280;15603;50.878;8.036;2023-05-23T01:33:04;146709.50;;;14.56;100.00
28354;BME280;15603;50.878;8.036;2023-05-23T01:37:16;146704.66;;;14.54;100.00
28354;BME280;15603;50.878;8.036;2023-05-23T01:40:41;146759.53;;;14.77;100.00
28354;BME280;15603;50.878;8.036;2023-05-23T01:43:09;146752.22;;;14.74;100.00
28354;BME280;15603;50.878;8.036;2023-05-23T01:45:36;146744.91;;;14.71;100.00
28354;BME280;15603;50.878;8.036;2023-05-23T01:48:04;146709.50;;;14.56;100.00
28354;BME280;15603;50.878;8.036;2023-05-23T01:50:32;146707.09;;;14.55;100.00
28354;BME280;15603;50.878;8.036;2023-05-23T01:52:59;146726.63;;;14.63;100.00
28354;BME280;15603;50.878;8.036;2023-05-23T01:55:27;146702.22;;;14.53;100.00
28354;BME280;15603;50.878;8.036;2023-05-23T01:57:55;146787.56;;;14.89;100.00
28354;BME280;15603;50.878;8.036;2023-05-23T02:00:23;146826.59;;;15.05;100.00
28354;BME280;15603;50.878;8.036;2023-05-23T02:02:51;146814.41;;;15.00;100.00
28354;BME280;15603;50.878;8.036;2023-05-23T02:05:18;146835.13;;;15.09;100.00
28354;BME280;15603;50.878;8.036;2023-05-23T02:07:45;146753.47;;;14.75;100.00
28354;BME280;15603;50.878;8.036;2023-05-23T02:10:13;146865.59;;;15.22;100.00
28354;BME280;15603;50.878;8.036;2023-05-23T02:12:40;146857.06;;;15.18;100.00
28354;BME280;15603;50.878;8.036;2023-05-23T02:15:07;146813.19;;;15.00;100.00
28354;BME280;15603;50.878;8.036;2023-05-23T02:28:03;146317.25;;;12.91;100.00
28354;BME280;15603;50.878;8.036;2023-05-23T02:45:14;146920.47;;;15.45;100.00
28354;BME280;15603;50.878;8.036;2023-05-23T02:48:56;146400.03;;;13.26;100.00
28354;BME280;15603;50.878;8.036;2023-05-23T02:56:12;146461.00;;;13.51;100.00
28354;BME280;15603;50.878;8.036;2023-05-23T02:59:52;146890.00;;;15.32;100.00
28354;BME280;15603;50.878;8.036;2023-05-23T03:11:06;146307.50;;;12.87;100.00
28354;BME280;15603;50.878;8.036;2023-05-23T03:14:06;146380.56;;;13.18;100.00
28354;BME280;15603;50.878;8.036;2023-05-23T03:17:37;146782.69;;;14.87;100.00
28354;BME280;15603;50.878;8.036;2023-05-23T03:24:33;146442.72;;;13.44;100.00
28354;BME280;15603;50.878;8.036;2023-05-23T03:31:48;146765.63;;;14.80;100.00
28354;BME280;15603;50.878;8.036;2023-05-23T03:35:20;146551.09;;;13.89;100.00
28354;BME280;15603;50.878;8.036;2023-05-23T03:44:52;146724.19;;;14.62;100.00
28354;BME280;15603;50.878;8.036;2023-05-23T03:48:54;146596.19;;;14.08;100.00
28354;BME280;15603;50.878;8.036;2023-05-23T03:52:48;146266.13;;;12.69;100.00
28354;BME280;15603;50.878;8.036;2023-05-23T03:56:29;146512.16;;;13.73;100.00
28354;BME280;15603;50.878;8.036;2023-05-23T04:02:10;146461.00;;;13.51;100.00
28354;BME280;15603;50.878;8.036;2023-05-23T04:09:57;146266.13;;;12.69;100.00
28354;BME280;15603;50.878;8.036;2023-05-23T04:13:28;146340.38;;;13.01;100.00
28354;BME280;15603;50.878;8.036;2023-05-23T04:25:03;146729.06;;;14.64;100.00
28354;BME280;15603;50.878;8.036;2023-05-23T04:28:43;146704.66;;;14.54;100.00
28354;BME280;15603;50.878;8.036;2023-05-23T04:31:12;146741.25;;;14.69;100.00
28354;BME280;15603;50.878;8.036;2023-05-23T04:33:40;146798.56;;;14.94;100.00
28354;BME280;15603;50.878;8.036;2023-05-23T04:36:09;146731.50;;;14.65;100.00
28354;BME280;15603;50.878;8.036;2023-05-23T04:38:38;146604.72;;;14.12;100.00
28354;BME280;15603;50.878;8.036;2023-05-23T04:41:07;146636.41;;;14.25;100.00
28354;BME280;15603;50.878;8.036;2023-05-23T04:43:55;146675.41;;;14.42;100.00
28354;BME280;15603;50.878;8.036;2023-05-23T04:46:27;146643.72;;;14.28;100.00
28354;BME280;15603;50.878;8.036;2023-05-23T04:49:07;146729.06;;;14.64;100.00
28354;BME280;15603;50.878;8.036;2023-05-23T04:51:35;146712.03;;;14.57;100.00
28354;BME280;15603;50.878;8.036;2023-05-23T04:54:12;146696.09;;;14.50;100.00
28354;BME280;15603;50.878;8.036;2023-05-23T04:56:39;146682.69;;;14.45;100.00
28354;BME280;15603;50.878;8.036;2023-05-23T04:59:06;146770.50;;;14.82;100.00
28354;BME280;15603;50.878;8.036;2023-05-23T05:01:37;146743.72;;;14.70;100.00
28354;BME280;15603;50.878;8.036;2023-05-23T05:04:08;146716.91;;;14.59;100.00
28354;BME280;15603;50.878;8.036;2023-05-23T05:06:35;146705.84;;;14.54;100.00
28354;BME280;15603;50.878;8.036;2023-05-23T05:09:03;146746.13;;;14.71;100.00
28354;BME280;15603;50.878;8.036;2023-05-23T05:11:30;146705.84;;;14.54;100.00
28354;BME280;15603;50.878;8.036;2023-05-23T05:13:57;146780.28;;;14.86;100.00
28354;BME280;15603;50.878;8.036;2023-05-23T05:16:25;146751.00;;;14.73;100.00
28354;BME280;15603;50.878;8.036;2023-05-23T05:18:52;146770.50;;;14.82;100.00
28354;BME280;15603;50.878;8.036;2023-05-23T05:21:20;146781.50;;;14.86;100.00
28354;BME280;15603;50.878;8.036;2023-05-23T05:23:47;146785.16;;;14.88;100.00
28354;BME280;15603;50.878;8.036;2023-05-23T05:26:16;146768.06;;;14.81;100.00
28354;BME280;15603;50.878;8.036;2023-05-23T05:28:43;146765.63;;;14.80;100.00
28354;BME280;15603;50.878;8.036;2023-05-23T05:31:10;146794.91;;;14.92;100.00
28354;BME280;15603;50.878;8.036;2023-05-23T05:33:41;146785.16;;;14.88;100.00
28354;BME280;15603;50.878;8.036;2023-05-23T05:36:13;146811.97;;;14.99;100.00
28354;BME280;15603;50.878;8.036;2023-05-23T05:38:41;146775.41;;;14.84;100.00
28354;BME280;15603;50.878;8.036;2023-05-23T05:41:08;146799.78;;;14.94;100.00
28354;BME280;15603;50.878;8.036;2023-05-23T05:43:39;146753.47;;;14.75;100.00
28354;BME280;15603;50.878;8.036;2023-05-23T05:46:06;146770.50;;;14.82;100.00
28354;BME280;15603;50.878;8.036;2023-05-23T05:48:34;146807.06;;;14.97;100.00
28354;BME280;15603;50.878;8.036;2023-05-23T05:51:05;146799.78;;;14.94;100.00
28354;BME280;15603;50.878;8.036;2023-05-23T05:53:33;146781.50;;;14.86;100.00
28354;BME280;15603;50.878;8.036;2023-05-23T05:56:01;146791.22;;;14.90;100.00
28354;BME280;15603;50.878;8.036;2023-05-23T05:58:29;146799.78;;;14.94;100.00
28354;BME280;15603;50.878;8.036;2023-05-23T06:01:02;146799.78;;;14.94;100.00
28354;BME280;15603;50.878;8.036;2023-05-23T06:03:29;146790.03;;;14.90;100.00
28354;BME280;15603;50.878;8.036;2023-05-23T06:05:57;146798.56;;;14.94;100.00
28354;BME280;15603;50.878;8.036;2023-05-23T06:08:25;146724.19;;;14.62;100.00
28354;BME280;15603;50.878;8.036;2023-05-23T06:10:52;146708.31;;;14.56;100.00
28354;BME280;15603;50.878;8.036;2023-05-23T06:13:19;146790.03;;;14.90;100.00
28354;BME280;15603;50.878;8.036;2023-05-23T06:15:51;146831.47;;;15.07;100.00
28354;BME280;15603;50.878;8.036;2023-05-23T06:18:18;146824.13;;;15.04;100.00
28354;BME280;15603;50.878;8.036;2023-05-23T06:20:46;146804.66;;;14.96;100.00
28354;BME280;15603;50.878;8.036;2023-05-23T06:23:15;146785.16;;;14.88;100.00
28354;BME280;15603;50.878;8.036;2023-05-23T06:25:44;146846.09;;;15.14;100.00
28354;BME280;15603;50.878;8.036;2023-05-23T06:28:11;146798.56;;;14.94;100.00
28354;BME280;15603;50.878;8.036;2023-05-23T06:30:38;146824.13;;;15.04;100.00
28354;BME280;15603;50.878;8.036;2023-05-23T06:33:10;146850.97;;;15.16;100.00
28354;BME280;15603;50.878;8.036;2023-05-23T06:35:38;146885.13;;;15.30;100.00
28354;BME280;15603;50.878;8.036;2023-05-23T06:38:05;146875.34;;;15.26;100.00
28354;BME280;15603;50.878;8.036;2023-05-23T06:40:32;146933.88;;;15.50;100.00
28354;BME280;15603;50.878;8.036;2023-05-23T06:42:59;146858.31;;;15.19;100.00
28354;BME280;15603;50.878;8.036;2023-05-23T06:45:45;146860.72;;;15.20;100.00
28354;BME280;15603;50.878;8.036;2023-05-23T06:48:13;146890.00;;;15.32;100.00
28354;BME280;15603;50.878;8.036;2023-05-23T06:50:41;146890.00;;;15.32;100.00
28354;BME280;15603;50.878;8.036;2023-05-23T06:53:10;146875.34;;;15.26;100.00
28354;BME280;15603;50.878;8.036;2023-05-23T06:55:37;146938.75;;;15.52;100.00
28354;BME280;15603;50.878;8.036;2023-05-23T06:58:07;146865.59;;;15.22;100.00
28354;BME280;15603;50.878;8.036;2023-05-23T07:00:36;146942.41;;;15.54;100.00
28354;BME280;15603;50.878;8.036;2023-05-23T07:03:24;146924.13;;;15.46;100.00
28354;BME280;15603;50.878;8.036;2023-05-23T07:05:51;146916.78;;;15.43;100.00
28354;BME280;15603;50.878;8.036;2023-05-23T07:08:21;146930.22;;;15.49;100.00
28354;BME280;15603;50.878;8.036;2023-05-23T07:10:57;146887.53;;;15.31;100.00
28354;BME280;15603;50.878;8.036;2023-05-23T07:13:37;146861.91;;;15.20;100.00
28354;BME280;15603;50.878;8.036;2023-05-23T07:16:05;146779.03;;;14.85;100.00
28354;BME280;15603;50.878;8.036;2023-05-23T07:18:35;146853.44;;;15.17;100.00
28354;BME280;15603;50.878;8.036;2023-05-23T07:21:04;146855.84;;;15.18;100.00
28354;BME280;15603;50.878;8.036;2023-05-23T07:23:32;146921.72;;;15.45;100.00
28354;BME280;15603;50.878;8.036;2023-05-23T07:26:02;146931.47;;;15.49;100.00
28354;BME280;15603;50.878;8.036;2023-05-23T07:28:44;146929.00;;;15.48;100.00
28354;BME280;15603;50.878;8.036;2023-05-23T07:31:11;147021.72;;;15.87;100.00
28354;BME280;15603;50.878;8.036;2023-05-23T07:33:40;146979.00;;;15.69;100.00
28354;BME280;15603;50.878;8.036;2023-05-23T07:36:10;146955.84;;;15.60;100.00
28354;BME280;15603;50.878;8.036;2023-05-23T07:38:37;146921.72;;;15.45;100.00
28354;BME280;15603;50.878;8.036;2023-05-23T07:41:04;147055.91;;;16.02;100.00
28354;BME280;15603;50.878;8.036;2023-05-23T07:43:39;147108.34;;;16.24;100.00
28354;BME280;15603;50.878;8.036;2023-05-23T07:46:06;147041.28;;;15.96;100.00
28354;BME280;15603;50.878;8.036;2023-05-23T07:48:34;147136.41;;;16.36;100.00
28354;BME280;15603;50.878;8.036;2023-05-23T07:51:02;147094.91;;;16.18;100.00
28354;BME280;15603;50.878;8.036;2023-05-23T07:53:29;147057.13;;;16.02;100.00
28354;BME280;15603;50.878;8.036;2023-05-23T07:55:57;147102.25;;;16.21;99.58
28354;BME280;15603;50.878;8.036;2023-05-23T07:58:28;147024.19;;;15.88;100.00
28354;BME280;15603;50.878;8.036;2023-05-23T08:00:55;147043.69;;;15.97;100.00
28354;BME280;15603;50.878;8.036;2023-05-23T08:03:49;146979.00;;;15.69;100.00
28354;BME280;15603;50.878;8.036;2023-05-23T08:06:22;146982.69;;;15.71;100.00
28354;BME280;15603;50.878;8.036;2023-05-23T08:08:49;146977.78;;;15.69;100.00
28354;BME280;15603;50.878;8.036;2023-05-23T08:11:17;147019.31;;;15.86;100.00
28354;BME280;15603;50.878;8.036;2023-05-23T08:13:48;146996.13;;;15.77;100.00
28354;BME280;15603;50.878;8.036;2023-05-23T08:16:35;147026.59;;;15.89;100.00
28354;BME280;15603;50.878;8.036;2023-05-23T08:19:06;146982.69;;;15.71;100.00
28354;BME280;15603;50.878;8.036;2023-05-23T08:21:34;146982.69;;;15.71;100.00
28354;BME280;15603;50.878;8.036;2023-05-23T08:24:02;146927.78;;;15.48;100.00
28354;BME280;15603;50.878;8.036;2023-05-23T08:26:30;146975.34;;;15.68;100.00
28354;BME280;15603;50.878;8.036;2023-05-23T08:29:01;146953.38;;;15.59;100.00
28354;BME280;15603;50.878;8.036;2023-05-23T08:31:30;146970.47;;;15.66;100.00
28354;BME280;15603;50.878;8.036;2023-05-23T08:34:00;146960.72;;;15.62;100.00
28354;BME280;15603;50.878;8.036;2023-05-23T08:36:29;146977.78;;;15.69;100.00
28354;BME280;15603;50.878;8.036;2023-05-23T08:38:56;147002.22;;;15.79;100.00
28354;BME280;15603;50.878;8.036;2023-05-23T08:41:28;146975.34;;;15.68;100.00
28354;BME280;15603;50.878;8.036;2023-05-23T08:44:01;146908.28;;;15.40;100.00
28354;BME280;15603;50.878;8.036;2023-05-23T08:46:38;146902.16;;;15.37;100.00
28354;BME280;15603;50.878;8.036;2023-05-23T08:49:06;146907.03;;;15.39;100.00
28354;BME280;15603;50.878;8.036;2023-05-23T08:51:34;146933.88;;;15.50;100.00
28354;BME280;15603;50.878;8.036;2023-05-23T08:54:10;146882.66;;;15.29;100.00
28354;BME280;15603;50.878;8.036;2023-05-23T08:56:43;146870.47;;;15.24;100.00
28354;BME280;15603;50.878;8.036;2023-05-23T08:59:12;146843.63;;;15.12;100.00
28354;BME280;15603;50.878;8.036;2023-05-23T09:01:42;146870.47;;;15.24;100.00
28354;BME280;15603;50.878;8.036;2023-05-23T09:04:11;146882.66;;;15.29;100.00
28354;BME280;15603;50.878;8.036;2023-05-23T09:06:50;146877.78;;;15.27;100.00
28354;BME280;15603;50.878;8.036;2023-05-23T09:09:18;146902.16;;;15.37;100.00
28354;BME280;15603;50.878;8.036;2023-05-23T09:11:45;146941.22;;;15.54;99.73
28354;BME280;15603;50.878;8.036;2023-05-23T09:14:13;146902.16;;;15.37;99.61
28354;BME280;15603;50.878;8.036;2023-05-23T09:16:45;146931.47;;;15.49;100.00
28354;BME280;15603;50.878;8.036;2023-05-23T09:19:15;146974.13;;;15.67;99.76
28354;BME280;15603;50.878;8.036;2023-05-23T09:21:52;147011.97;;;15.83;97.88
28354;BME280;15603;50.878;8.036;2023-05-23T09:24:33;147055.91;;;16.02;97.95
28354;BME280;15603;50.878;8.036;2023-05-23T09:27:00;147014.44;;;15.84;97.64
28354;BME280;15603;50.878;8.036;2023-05-23T09:29:27;147101.06;;;16.21;96.88
28354;BME280;15603;50.878;8.036;2023-05-23T09:32:11;147026.59;;;15.89;99.03
28354;BME280;15603;50.878;8.036;2023-05-23T09:34:59;147024.19;;;15.88;99.83
28354;BME280;15603;50.878;8.036;2023-05-23T09:37:36;147112.00;;;16.25;96.63
28354;BME280;15603;50.878;8.036;2023-05-23T09:40:14;147092.50;;;16.17;97.16
28354;BME280;15603;50.878;8.036;2023-05-23T09:42:49;146975.34;;;15.68;99.31
28354;BME280;15603;50.878;8.036;2023-05-23T09:45:16;146921.72;;;15.45;100.00
28354;BME280;15603;50.878;8.036;2023-05-23T09:47:51;146931.47;;;15.49;100.00
28354;BME280;15603;50.878;8.036;2023-05-23T09:50:19;146981.47;;;15.70;99.83
28354;BME280;15603;50.878;8.036;2023-05-23T09:52:47;146970.47;;;15.66;99.89
28354;BME280;15603;50.878;8.036;2023-05-23T09:55:15;146868.03;;;15.23;100.00
28354;BME280;15603;50.878;8.036;2023-05-23T09:57:42;146879.00;;;15.27;100.00
28354;BME280;15603;50.878;8.036;2023-05-23T10:00:10;146877.78;;;15.27;100.00
28354;BME280;15603;50.878;8.036;2023-05-23T10:03:06;146960.72;;;15.62;99.62
28354;BME280;15603;50.878;8.036;2023-05-23T10:05:49;146892.41;;;15.33;97.97
28354;BME280;15603;50.878;8.036;2023-05-23T10:08:23;146891.22;;;15.32;98.05
28354;BME280;15603;50.878;8.036;2023-05-23T10:13:27;146887.53;;;15.31;98.84
28354;BME280;15603;50.878;8.036;2023-05-23T10:15:58;146759.53;;;14.77;98.44
28354;BME280;15603;50.878;8.036;2023-05-23T10:18:33;146858.31;;;15.19;100.00
28354;BME280;15603;50.878;8.036;2023-05-23T10:21:08;146820.47;;;15.03;100.00
28354;BME280;15603;50.878;8.036;2023-05-23T10:23:38;146898.50;;;15.36;97.97
28354;BME280;15603;50.878;8.036;2023-05-23T10:26:08;146849.75;;;15.15;99.32
28354;BME280;15603;50.878;8.036;2023-05-23T10:28:36;146890.00;;;15.32;99.21
28354;BME280;15603;50.878;8.036;2023-05-23T10:31:03;146843.63;;;15.12;99.31
28354;BME280;15603;50.878;8.036;2023-05-23T10:33:34;146805.84;;;14.97;99.74
28354;BME280;15603;50.878;8.036;2023-05-23T10:36:18;146846.09;;;15.14;100.00
28354;BME280;15603;50.878;8.036;2023-05-23T10:39:12;146841.22;;;15.11;98.83
28354;BME280;15603;50.878;8.036;2023-05-23T10:41:52;146875.34;;;15.26;99.66
28354;BME280;15603;50.878;8.036;2023-05-23T10:44:28;146819.25;;;15.02;100.00
28354;BME280;15603;50.878;8.036;2023-05-23T10:46:59;146864.38;;;15.21;99.88
28354;BME280;15603;50.878;8.036;2023-05-23T10:49:38;146892.41;;;15.33;99.52
28354;BME280;15603;50.878;8.036;2023-05-23T10:52:10;146925.34;;;15.47;97.41
28354;BME280;15603;50.878;8.036;2023-05-23T10:54:43;146869.25;;;15.23;98.59
28354;BME280;15603;50.878;8.036;2023-05-23T10:57:14;146948.50;;;15.57;99.38
28354;BME280;15603;50.878;8.036;2023-05-23T10:59:44;146903.41;;;15.38;96.04
28354;BME280;15603;50.878;8.036;2023-05-23T11:02:13;147053.44;;;16.01;95.77
28354;BME280;15603;50.878;8.036;2023-05-23T11:04:44;146933.88;;;15.50;97.08
28354;BME280;15603;50.878;8.036;2023-05-23T11:07:32;146897.28;;;15.35;96.76
28354;BME280;15603;50.878;8.036;2023-05-23T11:12:38;146850.97;;;15.16;98.01
28354;BME280;15603;50.878;8.036;2023-05-23T11:17:56;146793.69;;;14.91;100.00
28354;BME280;15603;50.878;8.036;2023-05-23T11:20:23;146762.00;;;14.78;100.00
28354;BME280;15603;50.878;8.036;2023-05-23T11:22:58;146759.53;;;14.77;100.00
28354;BME280;15603;50.878;8.036;2023-05-23T11:25:48;146705.84;;;14.54;100.00
28354;BME280;15603;50.878;8.036;2023-05-23T11:28:15;146641.28;;;14.27;100.00
28354;BME280;15603;50.878;8.036;2023-05-23T11:30:43;146725.44;;;14.63;100.00
28354;BME280;15603;50.878;8.036;2023-05-23T11:33:11;146707.09;;;14.55;100.00
28354;BME280;15603;50.878;8.036;2023-05-23T11:35:44;146729.06;;;14.64;100.00
28354;BME280;15603;50.878;8.036;2023-05-23T11:38:13;146780.28;;;14.86;100.00
28354;BME280;15603;50.878;8.036;2023-05-23T11:40:42;146704.66;;;14.54;100.00
28354;BME280;15603;50.878;8.036;2023-05-23T11:43:14;146668.09;;;14.39;100.00
28354;BME280;15603;50.878;8.036;2023-05-23T11:45:42;146731.50;;;14.65;100.00
28354;BME280;15603;50.878;8.036;2023-05-23T11:48:15;146797.31;;;14.93;100.00
28354;BME280;15603;50.878;8.036;2023-05-23T11:50:51;146837.56;;;15.10;99.62
28354;BME280;15603;50.878;8.036;2023-05-23T11:53:20;146932.66;;;15.50;96.31
28354;BME280;15603;50.878;8.036;2023-05-23T11:55:52;146836.34;;;15.09;97.43
28354;BME280;15603;50.878;8.036;2023-05-23T11:58:21;146811.97;;;14.99;98.28
28354;BME280;15603;50.878;8.036;2023-05-23T12:00:51;146755.88;;;14.76;100.00
28354;BME280;15603;50.878;8.036;2023-05-23T12:03:24;146763.19;;;14.79;99.91
28354;BME280;15603;50.878;8.036;2023-05-23T12:05:51;146602.31;;;14.11;100.00
28354;BME280;15603;50.878;8.036;2023-05-23T12:08:18;146575.50;;;14.00;100.00
28354;BME280;15603;50.878;8.036;2023-05-23T12:10:52;146602.31;;;14.11;100.00
28354;BME280;15603;50.878;8.036;2023-05-23T12:13:23;146512.16;;;13.73;100.00
28354;BME280;15603;50.878;8.036;2023-05-23T12:15:58;146478.03;;;13.59;100.00
28354;BME280;15603;50.878;8.036;2023-05-23T12:18:30;146524.34;;;13.78;100.00
28354;BME280;15603;50.878;8.036;2023-05-23T12:21:02;146509.69;;;13.72;100.00
28354;BME280;15603;50.878;8.036;2023-05-23T12:23:31;146584.03;;;14.03;100.00
28354;BME280;15603;50.878;8.036;2023-05-23T12:26:04;146491.41;;;13.64;100.00
28354;BME280;15603;50.878;8.036;2023-05-23T12:28:40;146641.28;;;14.27;100.00
28354;BME280;15603;50.878;8.036;2023-05-23T12:31:15;146658.34;;;14.34;100.00
28354;BME280;15603;50.878;8.036;2023-05-23T12:33:44;146682.69;;;14.45;100.00
28354;BME280;15603;50.878;8.036;2023-05-23T12:36:12;146638.84;;;14.26;100.00
28354;BME280;15603;50.878;8.036;2023-05-23T12:38:41;146604.72;;;14.12;100.00
28354;BME280;15603;50.878;8.036;2023-05-23T12:41:14;146601.06;;;14.10;100.00
28354;BME280;15603;50.878;8.036;2023-05-23T12:43:49;146529.22;;;13.80;100.00
28354;BME280;15603;50.878;8.036;2023-05-23T12:46:23;146470.75;;;13.55;100.00
28354;BME280;15603;50.878;8.036;2023-05-23T12:48:50;146558.44;;;13.92;100.00
28354;BME280;15603;50.878;8.036;2023-05-23T12:51:18;146603.50;;;14.11;100.00
28354;BME280;15603;50.878;8.036;2023-05-23T12:53:45;146663.22;;;14.37;100.00
28354;BME280;15603;50.878;8.036;2023-05-23T12:56:13;146665.66;;;14.38;100.00
28354;BME280;15603;50.878;8.036;2023-05-23T12:58:40;146694.91;;;14.50;100.00
28354;BME280;15603;50.878;8.036;2023-05-23T13:01:07;146658.34;;;14.34;100.00
28354;BME280;15603;50.878;8.036;2023-05-23T13:03:35;146668.09;;;14.39;100.00
28354;BME280;15603;50.878;8.036;2023-05-23T13:06:02;146448.81;;;13.46;100.00
28354;BME280;15603;50.878;8.036;2023-05-23T13:08:29;146525.56;;;13.79;100.00
28354;BME280;15603;50.878;8.036;2023-05-23T13:10:56;146507.28;;;13.71;100.00
28354;BME280;15603;50.878;8.036;2023-05-23T13:13:25;146400.03;;;13.26;100.00
28354;BME280;15603;50.878;8.036;2023-05-23T13:15:52;146451.25;;;13.47;100.00
28354;BME280;15603;50.878;8.036;2023-05-23T13:18:20;146402.50;;;13.27;100.00
28354;BME280;15603;50.878;8.036;2023-05-23T13:20:47;146453.66;;;13.48;100.00
28354;BME280;15603;50.878;8.036;2023-05-23T13:23:14;146580.38;;;14.02;100.00
28354;BME280;15603;50.878;8.036;2023-05-23T13:25:41;146580.38;;;14.02;93.37
28354;BME280;15603;50.878;8.036;2023-05-23T13:28:09;146798.56;;;14.94;96.22
28354;BME280;15603;50.878;8.036;2023-05-23T13:30:36;147002.22;;;15.79;85.99
28354;BME280;15603;50.878;8.036;2023-05-23T13:33:03;147187.69;;;16.57;81.55
28354;BME280;15603;50.878;8.036;2023-05-23T13:35:31;147155.97;;;16.44;81.84
28354;BME280;15603;50.878;8.036;2023-05-23T13:37:59;147351.25;;;17.26;80.69
28354;BME280;15603;50.878;8.036;2023-05-23T13:40:26;147317.09;;;17.12;75.96
28354;BME280;15603;50.878;8.036;2023-05-23T13:42:53;147282.88;;;16.97;74.23
28354;BME280;15603;50.878;8.036;2023-05-23T13:45:20;147144.94;;;16.39;75.93
28354;BME280;15603;50.878;8.036;2023-05-23T13:47:49;147026.59;;;15.89;79.72
28354;BME280;15603;50.878;8.036;2023-05-23T13:50:16;146791.22;;;14.90;84.22
28354;BME280;15603;50.878;8.036;2023-05-23T13:52:43;146787.56;;;14.89;85.16
28354;BME280;15603;50.878;8.036;2023-05-23T13:55:15;146616.91;;;14.17;87.23
28354;BME280;15603;50.878;8.036;2023-05-23T13:57:43;146772.94;;;14.83;86.01
28354;BME280;15603;50.878;8.036;2023-05-23T14:00:11;146699.78;;;14.52;86.75
28354;BME280;15603;50.878;8.036;2023-05-23T14:02:38;146653.47;;;14.32;87.84
28354;BME280;15603;50.878;8.036;2023-05-23T14:05:06;146616.91;;;14.17;87.04
28354;BME280;15603;50.878;8.036;2023-05-23T14:07:34;146652.28;;;14.32;88.08
28354;BME280;15603;50.878;8.036;2023-05-23T14:10:01;146666.88;;;14.38;87.76
28354;BME280;15603;50.878;8.036;2023-05-23T14:12:28;146775.41;;;14.84;86.25
28354;BME280;15603;50.878;8.036;2023-05-23T14:14:55;146882.66;;;15.29;83.92
28354;BME280;15603;50.878;8.036;2023-05-23T14:17:22;146911.91;;;15.41;83.76
28354;BME280;15603;50.878;8.036;2023-05-23T14:19:50;146924.13;;;15.46;82.12
28354;BME280;15603;50.878;8.036;2023-05-23T14:22:17;146993.69;;;15.76;81.65
28354;BME280;15603;50.878;8.036;2023-05-23T14:24:44;147046.16;;;15.98;77.67
28354;BME280;15603;50.878;8.036;2023-05-23T14:27:11;147036.41;;;15.94;77.37
28354;BME280;15603;50.878;8.036;2023-05-23T14:29:39;146921.72;;;15.45;79.82
28354;BME280;15603;50.878;8.036;2023-05-23T14:32:06;146927.78;;;15.48;80.85
28354;BME280;15603;50.878;8.036;2023-05-23T14:34:33;146986.34;;;15.73;78.20
28354;BME280;15603;50.878;8.036;2023-05-23T14:37:00;146985.09;;;15.72;78.50
28354;BME280;15603;50.878;8.036;2023-05-23T14:39:27;146919.25;;;15.44;76.50
28354;BME280;15603;50.878;8.036;2023-05-23T14:41:55;146898.50;;;15.36;76.11
28354;BME280;15603;50.878;8.036;2023-05-23T14:44:22;146893.63;;;15.34;76.62
28354;BME280;15603;50.878;8.036;2023-05-23T14:46:49;146794.91;;;14.92;76.22
28354;BME280;15603;50.878;8.036;2023-05-23T14:49:16;146898.50;;;15.36;76.39
28354;BME280;15603;50.878;8.036;2023-05-23T14:51:44;146792.44;;;14.91;75.02
28354;BME280;15603;50.878;8.036;2023-05-23T14:54:17;146848.56;;;15.15;77.06
28354;BME280;15603;50.878;8.036;2023-05-23T14:56:44;147016.84;;;15.85;78.71
28354;BME280;15603;50.878;8.036;2023-05-23T14:59:12;147058.31;;;16.03;75.36
28354;BME280;15603;50.878;8.036;2023-05-23T15:01:39;147053.44;;;16.01;72.77
28354;BME280;15603;50.878;8.036;2023-05-23T15:04:07;147016.84;;;15.85;70.79
28354;BME280;15603;50.878;8.036;2023-05-23T15:06:37;146980.22;;;15.70;72.94
28354;BME280;15603;50.878;8.036;2023-05-23T15:09:05;146916.78;;;15.43;69.75
28354;BME280;15603;50.878;8.036;2023-05-23T15:11:33;147027.84;;;15.90;70.34
28354;BME280;15603;50.878;8.036;2023-05-23T15:14:05;146944.88;;;15.55;69.39
28354;BME280;15603;50.878;8.036;2023-05-23T15:16:33;146958.28;;;15.61;70.74
28354;BME280;15603;50.878;8.036;2023-05-23T15:19:03;146992.47;;;15.75;72.94
28354;BME280;15603;50.878;8.036;2023-05-23T15:21:30;147026.59;;;15.89;66.71
28354;BME280;15603;50.878;8.036;2023-05-23T15:23:58;147131.53;;;16.34;64.77
28354;BME280;15603;50.878;8.036;2023-05-23T15:26:25;147307.34;;;17.07;63.08
28354;BME280;15603;50.878;8.036;2023-05-23T15:28:53;147611.44;;;18.35;57.15
28354;BME280;15603;50.878;8.036;2023-05-23T15:31:20;147777.66;;;19.05;60.17
28354;BME280;15603;50.878;8.036;2023-05-23T15:33:47;147802.13;;;19.15;51.50
28354;BME280;15603;50.878;8.036;2023-05-23T15:36:15;148095.63;;;20.38;52.54
28354;BME280;15603;50.878;8.036;2023-05-23T15:38:42;148091.97;;;20.37;49.90
28354;BME280;15603;50.878;8.036;2023-05-23T15:41:10;148328.13;;;21.36;44.51
28354;BME280;15603;50.878;8.036;2023-05-23T15:43:37;148411.41;;;21.71;41.66
28354;BME280;15603;50.878;8.036;2023-05-23T15:46:04;148696.81;;;22.90;40.35
28354;BME280;15603;50.878;8.036;2023-05-23T15:48:32;148255.97;;;21.06;42.09
28354;BME280;15603;50.878;8.036;2023-05-23T15:50:59;147731.22;;;18.86;46.73
28354;BME280;15603;50.878;8.036;2023-05-23T15:53:26;147534.47;;;18.03;50.01